createdAt,value
2018-10-01T00:04:58.348Z,67.06
2018-10-01T00:10:02.648Z,67.08
2018-10-01T00:15:06.878Z,67.31
2018-10-01T00:20:16.068Z,67.31
2018-10-01T00:25:20.339Z,67.29
2018-10-01T00:30:24.676Z,67.91
2018-10-01T00:35:28.997Z,67.60
2018-10-01T00:40:33.280Z,67.77
2018-10-01T00:45:37.805Z,68.15
2018-10-01T00:50:42.053Z,68.40
2018-10-01T00:55:46.221Z,68.47
2018-10-01T01:00:50.609Z,68.24
2018-10-01T01:05:54.843Z,67.86
2018-10-01T01:10:59.327Z,68.18
2018-10-01T01:16:03.695Z,68.28
2018-10-01T01:21:07.975Z,68.17
2018-10-01T01:26:12.456Z,68.21
2018-10-01T01:31:16.875Z,68.09
2018-10-01T01:36:21.221Z,67.26
2018-10-01T01:41:25.469Z,67.01
2018-10-01T01:46:29.674Z,66.93
2018-10-01T01:51:33.934Z,64.79
2018-10-01T01:56:39.225Z,63.54
2018-10-01T02:01:43.501Z,63.45
2018-10-01T02:06:47.938Z,62.48
2018-10-01T02:11:52.281Z,63.09
2018-10-01T02:16:56.735Z,62.97
2018-10-01T02:22:01.048Z,62.98
2018-10-01T02:27:05.291Z,62.41
2018-10-01T02:32:09.579Z,62.36
2018-10-01T02:37:14.274Z,62.47
2018-10-01T02:42:18.591Z,63.16
2018-10-01T02:47:22.832Z,63.77
2018-10-01T02:52:32.915Z,63.71
2018-10-01T02:57:37.173Z,63.21
2018-10-01T03:02:41.522Z,64.08
2018-10-01T03:07:45.759Z,64.33
2018-10-01T03:12:50.051Z,63.54
2018-10-01T03:17:54.330Z,64.11
2018-10-01T03:22:58.616Z,64.24
2018-10-01T03:28:02.947Z,65.03
2018-10-01T03:33:07.615Z,65.36
2018-10-01T03:38:11.899Z,65.30
2018-10-01T03:43:16.209Z,65.87
2018-10-01T03:48:20.801Z,65.87
2018-10-01T03:53:25.248Z,65.91
2018-10-01T03:58:29.577Z,65.55
2018-10-01T04:03:33.982Z,66.20
2018-10-01T04:08:39.432Z,66.78
2018-10-01T04:13:43.680Z,66.92
2018-10-01T04:18:48.017Z,66.95
2018-10-01T04:23:52.367Z,67.32
2018-10-01T04:28:56.653Z,67.21
2018-10-01T04:34:00.974Z,67.43
2018-10-01T04:39:08.865Z,67.20
2018-10-01T04:44:13.223Z,67.48
2018-10-01T04:49:17.782Z,67.00
2018-10-01T04:54:22.069Z,67.61
2018-10-01T04:59:26.405Z,67.99
2018-10-01T05:04:32.796Z,68.31
2018-10-01T05:09:37.559Z,68.48
2018-10-01T05:14:41.862Z,68.30
2018-10-01T05:19:46.285Z,68.00
2018-10-01T05:24:50.585Z,66.94
2018-10-01T05:29:54.857Z,67.33
2018-10-01T05:34:59.316Z,67.77
2018-10-01T05:40:03.770Z,68.31
2018-10-01T05:45:08.369Z,67.75
2018-10-01T05:50:12.732Z,67.73
2018-10-01T05:55:18.725Z,67.78
2018-10-01T06:00:23.497Z,67.53
2018-10-01T06:05:27.870Z,67.12
2018-10-01T06:10:32.374Z,67.24
2018-10-01T06:15:36.710Z,67.39
2018-10-01T06:20:41.674Z,66.81
2018-10-01T06:25:45.926Z,66.29
2018-10-01T06:30:50.334Z,66.21
2018-10-01T06:35:55.244Z,66.06
2018-10-01T06:41:00.053Z,66.02
2018-10-01T06:46:04.377Z,65.96
2018-10-01T06:51:08.995Z,65.46
2018-10-01T06:56:13.709Z,65.14
2018-10-01T07:01:18.234Z,64.70
2018-10-01T07:06:22.493Z,64.05
2018-10-01T07:11:26.980Z,63.54
2018-10-01T07:16:31.594Z,63.16
2018-10-01T07:21:36.158Z,63.64
2018-10-01T07:26:41.400Z,63.87
2018-10-01T07:31:46.246Z,63.95
2018-10-01T07:36:50.893Z,63.68
2018-10-01T07:41:55.319Z,64.03
2018-10-01T07:47:00.073Z,63.73
2018-10-01T07:52:05.662Z,64.47
2018-10-01T07:57:10.632Z,64.75
2018-10-01T08:02:15.756Z,65.35
2018-10-01T08:07:21.403Z,65.91
2018-10-01T08:12:25.746Z,65.93
2018-10-01T08:17:30.411Z,66.45
2018-10-01T08:22:34.735Z,65.90
2018-10-01T08:27:39.075Z,65.88
2018-10-01T08:32:44.739Z,65.78
2018-10-01T08:37:49.197Z,66.19
2018-10-01T08:42:53.620Z,66.71
2018-10-01T08:47:59.805Z,66.69
2018-10-01T08:53:44.072Z,65.89
2018-10-01T08:58:49.767Z,66.37
2018-10-01T09:03:54.390Z,66.16
2018-10-01T09:09:01.566Z,66.98
2018-10-01T09:14:08.191Z,67.63
2018-10-01T09:19:12.981Z,67.58
2018-10-01T09:24:17.344Z,67.52
2018-10-01T09:29:24.530Z,66.73
2018-10-01T09:39:46.671Z,67.32
2018-10-01T09:44:52.314Z,66.02
2018-10-01T09:49:57.758Z,64.03
2018-10-01T09:55:04.175Z,62.29
2018-10-01T10:00:10.462Z,59.94
2018-10-01T10:05:14.937Z,58.70
2018-10-01T10:10:24.743Z,58.55
2018-10-01T10:15:29.771Z,59.00
2018-10-01T10:20:39.369Z,59.64
2018-10-01T10:25:45.023Z,60.79
2018-10-01T10:30:50.655Z,62.01
2018-10-01T10:35:55.548Z,65.31
2018-10-01T10:41:08.131Z,68.83
2018-10-01T10:46:12.907Z,70.67
2018-10-01T10:51:24.737Z,71.95
2018-10-01T10:56:29.798Z,75.04
2018-10-01T11:01:34.529Z,77.11
2018-10-01T11:06:41.662Z,79.35
2018-10-01T11:11:49.397Z,81.25
2018-10-01T11:16:53.940Z,83.10
2018-10-01T11:21:59.737Z,84.74
2018-10-01T11:27:05.510Z,84.21
2018-10-01T11:32:20.039Z,85.11
2018-10-01T11:37:25.353Z,85.48
2018-10-01T11:42:33.019Z,85.75
2018-10-01T11:47:38.901Z,85.90
2018-10-01T11:52:43.960Z,85.99
2018-10-01T11:57:48.851Z,84.94
2018-10-01T12:02:53.301Z,85.19
2018-10-01T12:07:58.411Z,83.20
2018-10-01T12:13:02.970Z,82.47
2018-10-01T12:18:07.483Z,82.91
2018-10-01T12:23:21.322Z,82.84
2018-10-01T12:28:25.708Z,83.55
2018-10-01T12:33:30.176Z,83.92
2018-10-01T12:38:34.887Z,83.25
2018-10-01T12:48:54.055Z,79.19
2018-10-01T12:54:00.459Z,79.01
2018-10-01T12:59:05.812Z,78.65
2018-10-01T13:04:10.128Z,79.37
2018-10-01T13:09:17.618Z,78.74
2018-10-01T13:14:21.953Z,77.73
2018-10-01T13:19:26.492Z,77.19
2018-10-01T13:24:31.042Z,77.03
2018-10-01T13:29:37.140Z,77.16
2018-10-01T13:34:44.723Z,75.22
2018-10-01T13:39:49.310Z,75.13
2018-10-01T13:44:55.716Z,74.64
2018-10-01T13:50:05.300Z,73.75
2018-10-01T13:55:11.278Z,73.94
2018-10-01T14:00:15.863Z,73.52
2018-10-01T14:10:36.196Z,72.46
2018-10-01T14:15:40.943Z,71.78
2018-10-01T14:20:45.557Z,71.02
2018-10-01T14:25:49.932Z,72.14
2018-10-01T14:30:54.422Z,73.42
2018-10-01T14:35:58.802Z,73.99
2018-10-01T14:41:03.120Z,74.50
2018-10-01T14:46:07.597Z,74.04
2018-10-01T14:51:12.094Z,74.54
2018-10-01T14:56:16.410Z,74.88
2018-10-01T15:01:20.836Z,75.39
2018-10-01T15:06:25.297Z,75.58
2018-10-01T15:11:29.820Z,75.69
2018-10-01T15:16:34.531Z,71.92
2018-10-01T15:21:39.053Z,69.24
2018-10-01T15:26:43.461Z,67.06
2018-10-01T15:31:48.414Z,65.19
2018-10-01T15:36:53.131Z,65.09
2018-10-01T15:41:57.651Z,63.97
2018-10-01T15:47:02.234Z,65.25
2018-10-01T15:52:06.573Z,66.25
2018-10-01T15:57:12.014Z,67.10
2018-10-01T16:02:16.442Z,68.00
2018-10-01T16:07:21.994Z,68.61
2018-10-01T16:12:26.474Z,68.80
2018-10-01T16:17:32.106Z,69.01
2018-10-01T16:22:36.861Z,69.35
2018-10-01T16:27:41.588Z,69.52
2018-10-01T16:32:46.014Z,69.61
2018-10-01T16:37:50.730Z,66.49
2018-10-01T16:42:55.560Z,66.43
2018-10-01T16:48:02.447Z,66.50
2018-10-01T16:53:11.836Z,67.00
2018-10-01T16:58:16.154Z,67.47
2018-10-01T17:03:21.671Z,67.60
2018-10-01T17:08:30.300Z,68.18
2018-10-01T17:13:39.620Z,68.68
2018-10-01T17:18:44.349Z,68.48
2018-10-01T17:23:49.267Z,68.92
2018-10-01T17:29:08.475Z,68.41
2018-10-01T17:34:17.884Z,67.35
2018-10-01T17:39:22.357Z,66.96
2018-10-01T17:44:26.878Z,66.68
2018-10-01T17:49:31.704Z,66.21
2018-10-01T17:54:36.186Z,66.76
2018-10-01T17:59:40.681Z,67.41
2018-10-01T18:04:45.154Z,67.72
2018-10-01T18:09:49.909Z,68.21
2018-10-01T18:14:54.340Z,68.73
2018-10-01T18:20:00.263Z,69.09
2018-10-01T18:25:06.179Z,69.17
2018-10-01T18:30:16.099Z,69.72
2018-10-01T18:35:20.989Z,69.94
2018-10-01T18:40:25.797Z,70.21
2018-10-01T18:45:30.252Z,70.84
2018-10-01T18:50:35.144Z,71.09
2018-10-01T18:55:39.953Z,71.26
2018-10-01T19:00:44.339Z,71.69
2018-10-01T19:05:48.658Z,71.72
2018-10-01T19:10:53.059Z,72.14
2018-10-01T19:15:58.057Z,72.10
2018-10-01T19:21:07.361Z,72.04
2018-10-01T19:26:11.867Z,72.45
2018-10-01T19:31:17.491Z,72.23
2018-10-01T19:36:22.517Z,72.57
2018-10-01T19:41:27.157Z,73.24
2018-10-01T19:46:31.916Z,73.62
2018-10-01T19:51:36.975Z,72.46
2018-10-01T19:56:41.500Z,71.16
2018-10-01T20:01:46.498Z,68.42
2018-10-01T20:06:50.866Z,67.58
2018-10-01T20:11:56.277Z,67.87
2018-10-01T20:17:00.953Z,67.94
2018-10-01T20:22:05.828Z,67.74
2018-10-01T20:27:10.613Z,67.12
2018-10-01T20:32:15.174Z,67.45
2018-10-01T20:37:19.585Z,67.69
2018-10-01T20:42:24.429Z,67.24
2018-10-01T20:47:28.855Z,67.23
2018-10-01T20:52:33.446Z,67.18
2018-10-01T20:57:37.623Z,67.32
2018-10-01T21:02:42.113Z,66.56
2018-10-01T21:07:46.395Z,66.52
2018-10-01T21:12:50.741Z,66.69
2018-10-01T21:17:55.053Z,67.15
2018-10-01T21:22:59.507Z,66.79
2018-10-01T21:28:03.915Z,67.13
2018-10-01T21:33:09.930Z,67.87
2018-10-01T21:38:14.219Z,70.79
2018-10-01T21:43:19.431Z,72.33
2018-10-01T21:48:23.728Z,73.59
2018-10-01T21:53:28.186Z,73.77
2018-10-01T21:58:32.486Z,73.83
2018-10-01T22:03:36.901Z,74.32
2018-10-01T22:08:41.699Z,74.24
2018-10-01T22:13:46.037Z,74.92
2018-10-01T22:18:50.205Z,75.14
2018-10-01T22:23:54.671Z,75.90
2018-10-01T22:28:59.136Z,76.62
2018-10-01T22:34:03.735Z,76.82
2018-10-01T22:39:08.774Z,77.07
2018-10-01T22:44:13.083Z,77.50
2018-10-01T22:49:17.571Z,77.94
2018-10-01T22:54:21.808Z,77.77
2018-10-01T22:59:26.140Z,77.78
2018-10-01T23:04:30.553Z,77.98
2018-10-01T23:09:34.769Z,78.19
2018-10-01T23:14:39.121Z,78.49
2018-10-01T23:19:43.364Z,78.58
2018-10-01T23:24:47.590Z,78.82
2018-10-01T23:29:52.482Z,78.93
2018-10-01T23:34:56.696Z,78.80
2018-10-01T23:40:00.930Z,78.60
2018-10-01T23:45:05.241Z,78.71
2018-10-01T23:50:09.432Z,78.83
2018-10-01T23:55:15.886Z,78.93
